createdAt,value
2018-10-16T00:04:19.289Z,14.00
2018-10-16T00:09:48.541Z,15.23
2018-10-16T00:15:17.816Z,12.95
2018-10-16T00:20:47.042Z,14.23
2018-10-16T00:26:16.403Z,13.18
2018-10-16T00:31:45.749Z,13.00
2018-10-16T00:37:16.021Z,13.68
2018-10-16T00:42:45.270Z,12.98
2018-10-16T00:48:14.545Z,12.90
2018-10-16T00:53:43.794Z,13.68
2018-10-16T00:59:13.073Z,13.40
2018-10-16T01:04:42.288Z,12.50
2018-10-16T01:10:12.532Z,14.83
2018-10-16T01:15:41.777Z,13.68
2018-10-16T01:21:10.988Z,13.88
2018-10-16T01:26:40.324Z,12.58
2018-10-16T01:32:09.613Z,12.95
2018-10-16T01:37:38.925Z,12.50
2018-10-16T01:43:08.145Z,12.65
2018-10-16T01:48:37.940Z,12.75
2018-10-16T01:54:07.414Z,12.53
2018-10-16T01:59:36.752Z,12.70
2018-10-16T02:05:07.167Z,12.50
2018-10-16T02:10:36.516Z,11.55
2018-10-16T02:16:05.872Z,12.63
2018-10-16T02:21:35.064Z,11.45
2018-10-16T02:27:04.356Z,11.18
2018-10-16T02:32:33.612Z,12.07
2018-10-16T02:38:02.808Z,11.83
2018-10-16T02:43:31.989Z,12.55
2018-10-16T02:49:01.329Z,12.35
2018-10-16T02:54:30.647Z,13.25
2018-10-16T03:00:01.565Z,12.40
2018-10-16T03:05:31.568Z,12.80
2018-10-16T03:11:01.032Z,11.65
2018-10-16T03:16:30.256Z,12.18
2018-10-16T03:21:59.494Z,12.70
2018-10-16T03:27:28.684Z,12.05
2018-10-16T03:32:57.992Z,11.65
2018-10-16T03:38:27.260Z,12.33
2018-10-16T03:44:01.160Z,12.55
2018-10-16T03:49:30.411Z,11.95
2018-10-16T03:54:59.750Z,11.73
2018-10-16T04:00:28.935Z,12.43
2018-10-16T04:05:58.230Z,12.47
2018-10-16T04:11:27.488Z,11.40
2018-10-16T04:16:56.861Z,12.98
2018-10-16T04:22:26.680Z,11.85
2018-10-16T04:27:55.952Z,12.95
2018-10-16T04:33:25.420Z,12.60
2018-10-16T04:38:55.763Z,12.20
2018-10-16T04:44:25.164Z,12.28
2018-10-16T04:49:54.717Z,12.28
2018-10-16T04:55:24.325Z,12.25
2018-10-16T05:00:53.668Z,12.47
2018-10-16T05:06:23.912Z,12.65
2018-10-16T05:11:54.422Z,12.28
2018-10-16T05:17:24.215Z,11.68
2018-10-16T05:22:53.876Z,12.13
2018-10-16T05:28:23.136Z,13.88
2018-10-16T05:33:52.348Z,13.93
2018-10-16T05:39:21.643Z,12.95
2018-10-16T05:44:50.824Z,13.05
2018-10-16T05:50:20.067Z,13.55
2018-10-16T05:56:01.964Z,13.43
2018-10-16T06:01:31.201Z,12.03
2018-10-16T06:07:00.517Z,12.95
2018-10-16T06:12:29.785Z,13.25
2018-10-16T06:17:59.047Z,13.00
2018-10-16T06:23:28.416Z,13.80
2018-10-16T06:28:57.753Z,12.45
2018-10-16T06:34:27.016Z,12.00
2018-10-16T06:39:56.267Z,12.28
2018-10-16T06:45:25.503Z,13.45
2018-10-16T06:50:54.842Z,13.18
2018-10-16T06:56:24.252Z,11.85
2018-10-16T07:01:53.573Z,11.95
2018-10-16T07:07:22.911Z,10.90
2018-10-16T07:12:52.236Z,11.75
2018-10-16T07:18:21.585Z,10.40
2018-10-16T07:23:50.959Z,10.82
2018-10-16T07:29:20.221Z,11.63
2018-10-16T07:34:49.490Z,10.82
2018-10-16T07:40:18.781Z,9.98
2018-10-16T07:45:48.050Z,9.95
2018-10-16T07:51:17.330Z,9.73
2018-10-16T07:56:46.628Z,10.68
2018-10-16T08:02:15.845Z,10.00
2018-10-16T08:07:45.164Z,10.75
2018-10-16T08:13:14.411Z,10.90
2018-10-16T08:18:43.668Z,10.43
2018-10-16T08:24:13.055Z,11.33
2018-10-16T08:29:43.465Z,11.08
2018-10-16T08:35:12.737Z,11.55
2018-10-16T08:40:42.067Z,10.65
2018-10-16T08:46:28.637Z,11.18
2018-10-16T08:51:59.416Z,11.50
2018-10-16T08:57:28.652Z,12.00
2018-10-16T09:02:57.906Z,12.53
2018-10-16T09:08:28.318Z,11.83
2018-10-16T09:13:57.582Z,11.08
2018-10-16T09:19:26.810Z,11.50
2018-10-16T09:24:56.106Z,11.05
2018-10-16T09:30:25.509Z,11.75
2018-10-16T09:35:54.748Z,11.25
2018-10-16T09:41:24.053Z,10.38
2018-10-16T09:46:53.332Z,10.80
2018-10-16T09:52:22.596Z,9.00
2018-10-16T09:57:51.879Z,9.33
2018-10-16T10:03:21.143Z,9.48
2018-10-16T10:08:50.356Z,8.70
2018-10-16T10:14:19.600Z,9.63
2018-10-16T10:19:48.990Z,8.90
2018-10-16T10:25:18.312Z,9.43
2018-10-16T10:30:47.557Z,8.53
2018-10-16T10:36:16.792Z,8.63
2018-10-16T10:41:46.053Z,10.30
2018-10-16T10:47:15.324Z,8.30
2018-10-16T10:52:44.584Z,7.80
2018-10-16T10:58:13.881Z,8.50
2018-10-16T11:03:43.158Z,8.15
2018-10-16T11:09:13.305Z,8.60
2018-10-16T11:14:42.571Z,6.97
2018-10-16T11:20:13.152Z,7.40
2018-10-16T11:25:42.385Z,7.85
2018-10-16T11:31:11.677Z,6.08
2018-10-16T11:36:40.940Z,7.25
2018-10-16T11:42:10.272Z,7.42
2018-10-16T11:47:39.535Z,7.08
2018-10-16T11:53:08.816Z,6.37
2018-10-16T11:58:38.110Z,7.10
2018-10-16T12:04:07.423Z,6.37
2018-10-16T12:09:36.664Z,5.78
2018-10-16T12:15:06.497Z,5.95
2018-10-16T12:20:39.943Z,6.70
2018-10-16T12:26:09.313Z,6.50
2018-10-16T12:31:38.550Z,6.05
2018-10-16T12:37:07.875Z,7.50
2018-10-16T12:42:37.098Z,6.40
2018-10-16T12:48:06.585Z,7.40
2018-10-16T12:53:35.790Z,6.78
2018-10-16T12:59:05.131Z,7.20
2018-10-16T13:04:34.440Z,7.20
2018-10-16T13:10:04.518Z,7.28
2018-10-16T13:15:34.800Z,7.62
2018-10-16T13:21:04.126Z,7.50
2018-10-16T13:26:33.341Z,7.05
2018-10-16T13:32:02.683Z,7.90
2018-10-16T13:37:32.016Z,7.53
2018-10-16T13:43:01.400Z,7.10
2018-10-16T13:48:30.608Z,7.62
2018-10-16T13:54:01.090Z,6.75
2018-10-16T13:59:30.670Z,7.53
2018-10-16T14:05:00.170Z,8.15
2018-10-16T14:10:29.337Z,7.78
2018-10-16T14:15:58.732Z,8.23
2018-10-16T14:21:28.144Z,7.12
2018-10-16T14:26:57.412Z,7.90
2018-10-16T14:32:26.652Z,7.17
2018-10-16T14:37:55.923Z,7.35
2018-10-16T14:43:25.267Z,6.90
2018-10-16T14:48:54.537Z,6.22
2018-10-16T14:54:23.846Z,6.65
2018-10-16T14:59:53.138Z,6.97
2018-10-16T15:05:22.521Z,7.30
2018-10-16T15:10:51.793Z,6.65
2018-10-16T15:16:21.090Z,7.90
2018-10-16T15:21:50.480Z,7.47
2018-10-16T15:27:19.884Z,6.33
2018-10-16T15:32:49.148Z,7.95
2018-10-16T15:38:18.407Z,7.60
2018-10-16T15:43:47.793Z,8.18
2018-10-16T15:49:17.731Z,7.87
2018-10-16T15:54:47.118Z,7.95
2018-10-16T16:00:17.528Z,7.87
2018-10-16T16:05:46.874Z,6.62
2018-10-16T16:11:16.497Z,6.00
2018-10-16T16:16:46.126Z,8.05
2018-10-16T16:22:15.757Z,6.47
2018-10-16T16:27:45.079Z,8.25
2018-10-16T16:33:14.533Z,8.25
2018-10-16T16:38:44.082Z,7.97
2018-10-16T16:44:13.592Z,12.25
2018-10-16T16:49:43.037Z,10.50
2018-10-16T16:55:14.801Z,8.75
2018-10-16T17:00:44.140Z,8.98
2018-10-16T17:06:13.839Z,8.08
2018-10-16T17:11:43.330Z,7.75
2018-10-16T17:17:12.737Z,12.28
2018-10-16T17:22:42.149Z,11.80
2018-10-16T17:28:11.488Z,9.83
2018-10-16T17:33:40.701Z,10.00
2018-10-16T17:39:10.959Z,11.88
2018-10-16T17:44:40.261Z,11.80
2018-10-16T17:50:12.735Z,12.05
2018-10-16T17:55:42.186Z,11.95
2018-10-16T18:01:11.848Z,11.78
2018-10-16T18:06:41.254Z,12.75
2018-10-16T18:12:10.749Z,18.35
2018-10-16T18:17:40.912Z,15.28
2018-10-16T18:23:10.333Z,13.88
2018-10-16T18:28:39.729Z,12.95
2018-10-16T18:34:09.289Z,15.32
2018-10-16T18:39:38.627Z,13.38
2018-10-16T18:45:09.220Z,13.72
2018-10-16T18:50:38.784Z,15.72
2018-10-16T18:56:08.198Z,31.65
2018-10-16T19:01:37.466Z,19.12
2018-10-16T19:07:08.000Z,28.23
2018-10-16T19:12:41.169Z,25.95
2018-10-16T19:18:10.860Z,23.20
2018-10-16T19:23:40.213Z,15.70
2018-10-16T19:29:09.501Z,15.43
2018-10-16T19:34:38.799Z,15.15
2018-10-16T19:40:08.260Z,15.35
2018-10-16T19:45:37.541Z,17.80
2018-10-16T19:51:07.124Z,25.32
2018-10-16T19:56:36.574Z,26.57
2018-10-16T20:02:07.048Z,17.42
2018-10-16T20:07:36.482Z,15.98
2018-10-16T20:13:05.932Z,16.00
2018-10-16T20:18:35.348Z,14.75
2018-10-16T20:24:05.059Z,14.68
2018-10-16T20:29:34.296Z,15.80
2018-10-16T20:35:03.886Z,15.55
2018-10-16T20:40:33.228Z,15.23
2018-10-16T20:46:02.512Z,15.25
2018-10-16T20:51:31.793Z,14.63
2018-10-16T20:57:01.125Z,13.68
2018-10-16T21:02:30.578Z,13.95
2018-10-16T21:07:59.858Z,14.73
2018-10-16T21:13:29.202Z,14.03
2018-10-16T21:18:58.526Z,13.75
2018-10-16T21:24:27.820Z,14.50
2018-10-16T21:29:57.464Z,13.25
2018-10-16T21:35:26.690Z,14.03
2018-10-16T21:40:56.030Z,14.70
2018-10-16T21:46:25.278Z,14.95
2018-10-16T21:51:54.549Z,15.88
2018-10-16T21:57:23.876Z,15.88
2018-10-16T22:02:53.213Z,15.08
2018-10-16T22:08:22.533Z,15.03
2018-10-16T22:13:51.849Z,15.83
2018-10-16T22:19:21.149Z,16.90
2018-10-16T22:24:50.539Z,16.20
2018-10-16T22:30:19.803Z,15.30
2018-10-16T22:35:49.021Z,16.35
2018-10-16T22:41:18.366Z,15.43
2018-10-16T22:46:47.755Z,15.60
2018-10-16T22:52:16.996Z,15.70
2018-10-16T22:57:46.229Z,14.43
2018-10-16T23:03:15.596Z,16.05
2018-10-16T23:08:44.873Z,14.47
2018-10-16T23:14:14.227Z,15.10
2018-10-16T23:19:43.489Z,14.60
2018-10-16T23:25:12.818Z,13.95
2018-10-16T23:30:42.041Z,14.90
2018-10-16T23:36:11.384Z,14.18
2018-10-16T23:41:41.485Z,13.93
2018-10-16T23:47:10.807Z,14.58
2018-10-16T23:52:39.992Z,14.35
2018-10-16T23:58:09.231Z,13.88
